createdAt,value
2022-12-03T00:02:21.443Z,23.87
2022-12-03T00:04:48.342Z,24.60
2022-12-03T00:07:15.204Z,23.43
2022-12-03T00:09:42.747Z,24.27
2022-12-03T00:12:09.602Z,25.13
2022-12-03T00:14:41.248Z,24.70
2022-12-03T00:17:11.180Z,24.97
2022-12-03T00:19:38.000Z,23.63
2022-12-03T00:22:04.788Z,25.10
2022-12-03T00:24:31.692Z,25.43
2022-12-03T00:26:58.486Z,26.23
2022-12-03T00:29:25.326Z,24.10
2022-12-03T00:31:52.152Z,26.17
2022-12-03T00:34:19.021Z,25.63
2022-12-03T00:36:45.868Z,25.73
2022-12-03T00:39:12.689Z,25.17
2022-12-03T00:41:39.466Z,24.40
2022-12-03T00:44:06.467Z,25.37
2022-12-03T00:46:33.310Z,25.03
2022-12-03T00:49:00.162Z,25.80
2022-12-03T00:51:26.982Z,26.53
2022-12-03T00:53:53.823Z,24.10
2022-12-03T00:56:20.649Z,26.03
2022-12-03T00:58:47.428Z,26.47
2022-12-03T01:01:14.303Z,24.60
2022-12-03T01:03:41.097Z,25.40
2022-12-03T01:06:08.102Z,26.13
2022-12-03T01:08:34.880Z,24.03
2022-12-03T01:11:01.697Z,24.97
2022-12-03T01:13:28.513Z,24.10
2022-12-03T01:15:55.510Z,25.00
2022-12-03T01:18:22.393Z,24.57
2022-12-03T01:20:49.206Z,24.23
2022-12-03T01:23:15.963Z,23.67
2022-12-03T01:25:42.806Z,25.10
2022-12-03T01:28:09.672Z,23.43
2022-12-03T01:30:56.488Z,24.83
2022-12-03T01:33:23.405Z,24.30
2022-12-03T01:35:50.199Z,25.30
2022-12-03T01:38:17.000Z,24.97
2022-12-03T01:40:43.877Z,24.97
2022-12-03T01:43:10.660Z,24.20
2022-12-03T01:45:37.492Z,24.70
2022-12-03T01:48:04.405Z,25.97
2022-12-03T01:50:33.289Z,23.97
2022-12-03T01:53:03.927Z,25.50
2022-12-03T01:55:30.877Z,26.87
2022-12-03T01:58:00.980Z,26.50
2022-12-03T02:00:29.224Z,27.10
2022-12-03T02:03:01.920Z,24.37
2022-12-03T02:05:31.808Z,26.10
2022-12-03T02:07:59.637Z,24.47
2022-12-03T02:10:32.294Z,23.97
2022-12-03T02:13:08.244Z,23.40
2022-12-03T02:15:39.667Z,21.33
2022-12-03T02:18:08.985Z,22.77
2022-12-03T02:21:27.480Z,23.67
2022-12-03T02:24:23.739Z,23.00
2022-12-03T02:26:50.740Z,24.23
2022-12-03T02:29:17.561Z,23.83
2022-12-03T02:31:44.833Z,22.57
2022-12-03T02:34:11.680Z,23.23
2022-12-03T02:36:39.417Z,24.00
2022-12-03T02:39:07.032Z,24.00
2022-12-03T02:41:52.272Z,23.53
2022-12-03T02:44:19.264Z,21.90
2022-12-03T02:46:46.231Z,23.43
2022-12-03T02:49:13.140Z,22.97
2022-12-03T02:51:40.212Z,24.40
2022-12-03T02:54:07.148Z,23.97
2022-12-03T02:56:34.053Z,24.53
2022-12-03T02:59:05.058Z,26.23
2022-12-03T03:01:32.576Z,25.47
2022-12-03T03:04:00.646Z,23.67
2022-12-03T03:06:27.466Z,24.07
2022-12-03T03:08:54.336Z,24.67
2022-12-03T03:11:21.213Z,23.00
2022-12-03T03:13:48.078Z,22.80
2022-12-03T03:16:15.016Z,23.73
2022-12-03T03:18:42.126Z,23.00
2022-12-03T03:21:09.144Z,24.93
2022-12-03T03:23:36.010Z,24.77
2022-12-03T03:26:08.046Z,25.30
2022-12-03T03:28:39.328Z,24.03
2022-12-03T03:31:08.663Z,23.13
2022-12-03T03:33:37.703Z,23.83
2022-12-03T03:36:05.338Z,25.17
2022-12-03T03:38:33.016Z,23.53
2022-12-03T03:41:02.302Z,24.30
2022-12-03T03:43:30.983Z,25.40
2022-12-03T03:45:57.915Z,25.03
2022-12-03T03:48:24.861Z,25.83
2022-12-03T03:51:09.466Z,24.83
2022-12-03T03:53:43.504Z,26.13
2022-12-03T03:56:11.094Z,26.33
2022-12-03T03:58:38.528Z,25.37
2022-12-03T04:01:05.678Z,26.60
2022-12-03T04:03:32.586Z,25.17
2022-12-03T04:05:59.448Z,27.43
2022-12-03T04:08:26.331Z,27.03
2022-12-03T04:11:11.426Z,26.70
2022-12-03T04:13:38.364Z,25.87
2022-12-03T04:16:05.371Z,26.53
2022-12-03T04:18:44.342Z,24.83
2022-12-03T04:21:33.319Z,23.67
2022-12-03T04:24:01.100Z,24.47
2022-12-03T04:26:47.057Z,27.17
2022-12-03T04:29:13.957Z,25.13
2022-12-03T04:31:59.845Z,25.83
2022-12-03T04:34:45.044Z,24.67
2022-12-03T04:37:12.004Z,24.33
2022-12-03T04:39:38.928Z,25.63
2022-12-03T04:42:06.283Z,26.90
2022-12-03T04:44:33.832Z,25.57
2022-12-03T04:47:12.519Z,25.23
2022-12-03T04:49:51.024Z,27.17
2022-12-03T04:52:19.856Z,26.83
2022-12-03T04:54:47.450Z,26.70
2022-12-03T04:57:14.312Z,25.57
2022-12-03T04:59:41.125Z,25.80
2022-12-03T05:02:08.233Z,26.90
2022-12-03T05:04:35.184Z,28.00
2022-12-03T05:07:02.207Z,26.10
2022-12-03T05:09:29.133Z,26.13
2022-12-03T05:11:55.988Z,22.30
2022-12-03T05:14:22.882Z,21.87
2022-12-03T05:16:49.787Z,20.97
2022-12-03T05:19:16.666Z,20.40
2022-12-03T05:21:43.472Z,20.83
2022-12-03T05:24:10.339Z,22.77
2022-12-03T05:26:37.149Z,21.27
2022-12-03T05:29:04.397Z,19.87
2022-12-03T05:31:31.339Z,21.23
2022-12-03T05:33:58.285Z,20.10
2022-12-03T05:36:25.637Z,21.13
2022-12-03T05:38:52.492Z,20.30
2022-12-03T05:41:37.679Z,20.00
2022-12-03T05:44:04.588Z,20.37
2022-12-03T05:46:32.676Z,18.37
2022-12-03T05:48:59.564Z,20.97
2022-12-03T05:51:26.381Z,21.07
2022-12-03T05:53:53.172Z,19.80
2022-12-03T05:56:20.018Z,18.80
2022-12-03T05:58:46.844Z,20.37
2022-12-03T06:01:13.646Z,20.60
2022-12-03T06:03:40.541Z,20.17
2022-12-03T06:06:07.493Z,19.93
2022-12-03T06:08:34.359Z,18.93
2022-12-03T06:11:01.157Z,18.97
2022-12-03T06:13:27.988Z,20.73
2022-12-03T06:15:54.794Z,20.83
2022-12-03T06:18:21.708Z,21.13
2022-12-03T06:20:48.504Z,20.87
2022-12-03T06:23:15.351Z,22.13
2022-12-03T06:25:42.200Z,19.90
2022-12-03T06:28:09.092Z,18.27
2022-12-03T06:30:36.017Z,19.30
2022-12-03T06:33:03.067Z,21.60
2022-12-03T06:35:29.980Z,20.47
2022-12-03T06:37:56.917Z,19.53
2022-12-03T06:40:24.806Z,20.13
2022-12-03T06:42:52.080Z,19.33
2022-12-03T06:45:19.010Z,19.30
2022-12-03T06:47:46.962Z,20.10
2022-12-03T06:50:14.543Z,19.90
2022-12-03T06:52:41.374Z,21.77
2022-12-03T06:55:09.034Z,19.60
2022-12-03T06:57:35.880Z,19.63
2022-12-03T07:00:04.687Z,19.23
2022-12-03T07:02:31.531Z,18.47
2022-12-03T07:04:58.692Z,19.10
2022-12-03T07:07:25.814Z,19.70
2022-12-03T07:09:52.626Z,19.87
2022-12-03T07:12:19.450Z,19.50
2022-12-03T07:14:46.552Z,20.13
2022-12-03T07:17:13.328Z,20.17
2022-12-03T07:19:40.659Z,20.17
2022-12-03T07:22:07.551Z,20.43
2022-12-03T07:24:34.404Z,19.90
2022-12-03T07:27:01.217Z,20.27
2022-12-03T07:29:28.063Z,20.60
2022-12-03T07:31:54.936Z,19.37
2022-12-03T07:34:21.966Z,19.20
2022-12-03T07:36:48.773Z,18.50
2022-12-03T07:39:15.875Z,19.73
2022-12-03T07:41:42.704Z,18.37
2022-12-03T07:44:14.165Z,18.90
2022-12-03T07:46:42.641Z,18.70
2022-12-03T07:49:09.538Z,19.97
2022-12-03T07:51:36.418Z,18.87
2022-12-03T07:54:03.355Z,19.00
2022-12-03T07:56:30.213Z,19.03
2022-12-03T07:58:58.134Z,19.50
2022-12-03T08:01:25.093Z,18.67
2022-12-03T08:03:52.093Z,20.40
2022-12-03T08:06:18.860Z,19.60
2022-12-03T08:08:45.674Z,18.80
2022-12-03T08:11:16.653Z,18.67
2022-12-03T08:13:43.517Z,19.60
2022-12-03T08:16:22.044Z,19.43
2022-12-03T08:18:50.881Z,19.97
2022-12-03T08:21:22.411Z,20.30
2022-12-03T08:23:49.339Z,20.17
2022-12-03T08:26:28.131Z,20.90
2022-12-03T08:28:54.970Z,19.10
2022-12-03T08:31:32.721Z,19.57
2022-12-03T08:34:17.714Z,18.97
2022-12-03T08:36:45.328Z,18.87
2022-12-03T08:39:30.816Z,19.40
2022-12-03T08:42:36.740Z,20.00
2022-12-03T08:45:28.323Z,19.60
2022-12-03T08:48:00.872Z,18.03
2022-12-03T08:50:36.449Z,18.33
2022-12-03T08:53:26.001Z,27.43
2022-12-03T08:55:55.177Z,34.53
2022-12-03T08:58:44.899Z,26.63
2022-12-03T09:01:11.685Z,19.53
2022-12-03T09:04:05.271Z,18.40
2022-12-03T09:06:32.152Z,19.10
2022-12-03T09:09:02.418Z,20.67
2022-12-03T09:11:33.297Z,15.27
2022-12-03T09:14:00.122Z,19.20
2022-12-03T09:16:27.912Z,17.57
2022-12-03T09:18:54.824Z,18.97
2022-12-03T09:21:21.642Z,17.57
2022-12-03T09:23:48.936Z,17.30
2022-12-03T09:26:15.737Z,17.60
2022-12-03T09:28:42.573Z,19.20
2022-12-03T09:31:09.547Z,19.40
2022-12-03T09:33:36.399Z,18.57
2022-12-03T09:36:03.379Z,20.07
2022-12-03T09:38:30.200Z,20.60
2022-12-03T09:40:57.075Z,22.37
2022-12-03T09:43:24.643Z,20.50
2022-12-03T09:45:56.676Z,19.43
2022-12-03T09:48:23.719Z,20.63
2022-12-03T09:50:51.311Z,18.33
2022-12-03T09:53:22.386Z,19.30
2022-12-03T09:55:50.187Z,17.77
2022-12-03T09:58:19.427Z,18.30
2022-12-03T10:00:49.559Z,18.53
2022-12-03T10:03:24.093Z,17.07
2022-12-03T10:05:55.703Z,17.80
2022-12-03T10:08:28.091Z,19.40
2022-12-03T10:10:57.712Z,18.37
2022-12-03T10:13:30.546Z,17.73
2022-12-03T10:16:00.251Z,18.87
2022-12-03T10:18:38.363Z,17.87
2022-12-03T10:21:32.429Z,17.03
2022-12-03T10:24:26.390Z,17.00
2022-12-03T10:27:01.899Z,16.87
2022-12-03T10:29:34.556Z,16.23
2022-12-03T10:32:10.440Z,16.57
2022-12-03T10:34:40.652Z,15.70
2022-12-03T10:37:22.589Z,15.53
2022-12-03T10:40:09.280Z,16.57
2022-12-03T10:42:40.173Z,15.07
2022-12-03T10:45:20.037Z,20.00
2022-12-03T10:48:14.501Z,27.23
2022-12-03T10:51:09.658Z,21.60
2022-12-03T10:53:39.986Z,16.50
2022-12-03T10:56:08.498Z,19.30
2022-12-03T10:58:39.162Z,23.13
2022-12-03T11:01:19.843Z,16.67
2022-12-03T11:03:47.372Z,16.17
2022-12-03T11:06:17.203Z,17.17
2022-12-03T11:08:51.556Z,19.03
2022-12-03T11:11:26.909Z,17.53
2022-12-03T11:13:59.687Z,17.57
2022-12-03T11:16:41.601Z,18.20
2022-12-03T11:19:17.467Z,16.43
2022-12-03T11:22:09.802Z,17.67
2022-12-03T11:24:39.015Z,18.17
2022-12-03T11:27:10.741Z,18.67
2022-12-03T11:29:57.585Z,19.43
2022-12-03T11:32:40.284Z,18.73
2022-12-03T11:35:35.757Z,17.97
2022-12-03T11:38:37.615Z,18.07
2022-12-03T11:41:24.650Z,16.87
2022-12-03T11:43:57.031Z,17.30
2022-12-03T11:46:37.712Z,17.77
2022-12-03T11:49:33.048Z,17.87
2022-12-03T11:52:11.564Z,18.13
2022-12-03T11:54:38.676Z,18.23
2022-12-03T11:57:32.761Z,17.23
2022-12-03T12:00:35.431Z,19.23
2022-12-03T12:03:02.346Z,17.20
2022-12-03T12:05:32.742Z,18.37
2022-12-03T12:08:02.478Z,18.77
2022-12-03T12:10:49.636Z,18.00
2022-12-03T12:13:46.685Z,17.23
2022-12-03T12:16:13.563Z,18.23
2022-12-03T12:18:51.127Z,18.93
2022-12-03T12:21:41.973Z,20.70
2022-12-03T12:24:51.655Z,18.20
2022-12-03T12:27:31.890Z,19.80
2022-12-03T12:30:09.947Z,19.17
2022-12-03T12:33:14.020Z,20.27
2022-12-03T12:35:41.499Z,19.63
2022-12-03T12:38:10.777Z,19.10
2022-12-03T12:40:42.492Z,18.17
2022-12-03T12:43:15.496Z,17.60
2022-12-03T12:45:45.422Z,18.00
2022-12-03T12:48:14.857Z,17.90
2022-12-03T12:50:45.438Z,18.17
2022-12-03T12:53:31.523Z,17.43
2022-12-03T12:56:14.451Z,17.07
2022-12-03T12:58:42.065Z,17.07
2022-12-03T13:01:25.349Z,16.97
2022-12-03T13:03:53.245Z,16.93
2022-12-03T13:06:26.749Z,18.03
2022-12-03T13:08:54.300Z,17.53
2022-12-03T13:11:41.933Z,18.87
2022-12-03T13:14:25.885Z,19.87
2022-12-03T13:16:55.778Z,20.63
2022-12-03T13:19:39.633Z,19.27
2022-12-03T13:22:20.549Z,19.20
2022-12-03T13:24:51.683Z,16.53
2022-12-03T13:27:18.410Z,17.77
2022-12-03T13:29:50.509Z,18.10
2022-12-03T13:32:39.168Z,18.03
2022-12-03T13:35:35.247Z,16.57
2022-12-03T13:38:13.855Z,19.50
2022-12-03T13:40:41.429Z,15.70
2022-12-03T13:43:16.120Z,20.23
2022-12-03T13:45:48.389Z,19.63
2022-12-03T13:48:35.260Z,16.17
2022-12-03T13:51:24.809Z,17.63
2022-12-03T13:53:51.875Z,16.10
2022-12-03T13:56:32.632Z,16.30
2022-12-03T13:59:01.261Z,15.77
2022-12-03T14:01:29.053Z,14.43
2022-12-03T14:03:56.476Z,15.57
2022-12-03T14:06:23.327Z,16.30
2022-12-03T14:08:50.307Z,14.90
2022-12-03T14:11:40.094Z,16.37
2022-12-03T14:14:06.931Z,16.23
2022-12-03T14:16:33.787Z,15.77
2022-12-03T14:19:00.635Z,16.40
2022-12-03T14:21:27.487Z,15.20
2022-12-03T14:23:54.321Z,17.23
2022-12-03T14:26:21.196Z,16.40
2022-12-03T14:28:48.037Z,15.63
2022-12-03T14:31:15.010Z,15.80
2022-12-03T14:33:41.798Z,14.03
2022-12-03T14:36:09.269Z,13.93
2022-12-03T14:38:36.063Z,14.73
2022-12-03T14:41:03.116Z,15.83
2022-12-03T14:43:29.968Z,16.17
2022-12-03T14:45:56.812Z,16.90
2022-12-03T14:48:23.725Z,15.77
2022-12-03T14:50:50.572Z,16.80
2022-12-03T14:53:17.392Z,16.13
2022-12-03T14:55:45.566Z,15.17
2022-12-03T14:58:12.770Z,15.80
2022-12-03T15:00:39.559Z,17.50
2022-12-03T15:03:06.410Z,15.93
2022-12-03T15:05:33.351Z,14.90
2022-12-03T15:08:00.271Z,14.53
2022-12-03T15:10:27.204Z,15.60
2022-12-03T15:12:54.161Z,13.17
2022-12-03T15:15:20.960Z,14.47
2022-12-03T15:17:48.821Z,14.40
2022-12-03T15:20:15.848Z,14.07
2022-12-03T15:22:42.762Z,15.83
2022-12-03T15:25:10.109Z,14.60
2022-12-03T15:27:36.957Z,16.27
2022-12-03T15:30:05.240Z,13.47
2022-12-03T15:32:32.164Z,14.40
2022-12-03T15:34:58.941Z,14.00
2022-12-03T15:37:27.929Z,16.23
2022-12-03T15:39:55.199Z,14.77
2022-12-03T15:42:22.309Z,16.13
2022-12-03T15:44:49.131Z,17.27
2022-12-03T15:47:15.973Z,17.03
2022-12-03T15:49:42.919Z,17.77
2022-12-03T15:52:09.706Z,16.70
2022-12-03T15:54:36.571Z,17.77
2022-12-03T15:57:03.381Z,15.97
2022-12-03T15:59:30.181Z,16.57
2022-12-03T16:01:57.108Z,17.93
2022-12-03T16:04:23.988Z,17.20
2022-12-03T16:06:50.891Z,18.40
2022-12-03T16:09:21.096Z,19.13
2022-12-03T16:11:50.728Z,18.90
2022-12-03T16:14:18.101Z,19.60
2022-12-03T16:16:44.975Z,17.63
2022-12-03T16:19:12.167Z,18.60
2022-12-03T16:21:39.565Z,16.77
2022-12-03T16:24:06.918Z,17.53
2022-12-03T16:26:33.944Z,18.03
2022-12-03T16:29:00.864Z,21.00
2022-12-03T16:31:27.794Z,19.10
2022-12-03T16:33:54.857Z,18.80
2022-12-03T16:36:21.776Z,19.13
2022-12-03T16:38:48.538Z,19.93
2022-12-03T16:41:15.392Z,18.43
2022-12-03T16:43:47.390Z,17.90
2022-12-03T16:46:14.394Z,17.03
2022-12-03T16:48:44.936Z,16.27
2022-12-03T16:51:12.031Z,18.83
2022-12-03T16:53:38.902Z,19.40
2022-12-03T16:56:05.833Z,21.85
2022-12-03T16:58:32.741Z,17.10
2022-12-03T17:00:59.719Z,17.80
2022-12-03T17:03:32.018Z,16.27
2022-12-03T17:06:01.264Z,16.93
2022-12-03T17:08:28.365Z,16.00
2022-12-03T17:10:55.288Z,17.43
2022-12-03T17:13:23.219Z,18.13
2022-12-03T17:15:51.043Z,17.03
2022-12-03T17:18:17.906Z,17.57
2022-12-03T17:20:44.886Z,17.40
2022-12-03T17:23:12.413Z,16.27
2022-12-03T17:25:39.260Z,15.83
2022-12-03T17:28:06.064Z,17.67
2022-12-03T17:30:32.953Z,30.87
2022-12-03T17:32:59.745Z,29.00
2022-12-03T17:35:28.453Z,19.70
2022-12-03T17:37:55.867Z,19.17
2022-12-03T17:40:23.082Z,16.53
2022-12-03T17:42:49.867Z,18.20
2022-12-03T17:45:16.817Z,16.13
2022-12-03T17:47:43.634Z,17.60
2022-12-03T17:50:10.877Z,17.77
2022-12-03T17:52:37.687Z,17.50
2022-12-03T17:55:14.198Z,16.45
2022-12-03T17:57:41.248Z,17.93
2022-12-03T18:00:09.125Z,17.03
2022-12-03T18:02:36.123Z,17.07
2022-12-03T18:05:03.714Z,17.63
2022-12-03T18:07:30.663Z,17.60
2022-12-03T18:09:57.949Z,18.47
2022-12-03T18:12:24.907Z,18.73
2022-12-03T18:14:51.755Z,16.47
2022-12-03T18:17:18.590Z,17.93
2022-12-03T18:19:45.447Z,16.63
2022-12-03T18:22:12.967Z,17.07
2022-12-03T18:24:39.960Z,16.47
2022-12-03T18:27:06.860Z,17.83
2022-12-03T18:29:33.665Z,17.90
2022-12-03T18:32:00.981Z,17.73
2022-12-03T18:34:27.880Z,16.37
2022-12-03T18:36:54.756Z,16.03
2022-12-03T18:39:37.165Z,17.63
2022-12-03T18:42:17.061Z,17.63
2022-12-03T18:44:49.441Z,16.70
2022-12-03T18:47:24.862Z,16.90
2022-12-03T18:49:52.373Z,17.27
2022-12-03T18:52:22.542Z,19.27
2022-12-03T18:54:49.692Z,18.93
2022-12-03T18:57:16.751Z,20.10
2022-12-03T18:59:43.779Z,19.17
2022-12-03T19:05:08.588Z,20.70
2022-12-03T19:07:35.544Z,19.07
2022-12-03T19:10:03.115Z,17.83
2022-12-03T19:12:31.275Z,18.20
2022-12-03T19:14:58.654Z,16.87
2022-12-03T19:17:27.337Z,17.23
2022-12-03T19:19:55.337Z,17.70
2022-12-03T19:22:23.215Z,17.33
2022-12-03T19:24:50.559Z,17.33
2022-12-03T19:27:18.207Z,16.50
2022-12-03T19:29:48.781Z,17.50
2022-12-03T19:32:18.236Z,17.30
2022-12-03T19:34:45.586Z,19.43
2022-12-03T19:37:12.476Z,17.83
2022-12-03T19:39:39.597Z,19.20
2022-12-03T19:42:06.555Z,17.40
2022-12-03T19:44:33.392Z,17.57
2022-12-03T19:47:00.594Z,18.13
2022-12-03T19:49:27.772Z,19.37
2022-12-03T19:51:54.663Z,20.60
2022-12-03T19:54:22.042Z,20.40
2022-12-03T19:56:49.137Z,20.50
2022-12-03T19:59:16.021Z,20.80
2022-12-03T20:01:43.442Z,21.87
2022-12-03T20:04:12.563Z,20.57
2022-12-03T20:06:40.269Z,21.23
2022-12-03T20:09:11.876Z,20.37
2022-12-03T20:11:40.876Z,20.17
2022-12-03T20:14:11.426Z,21.70
2022-12-03T20:16:38.370Z,20.37
2022-12-03T20:19:08.261Z,18.73
2022-12-03T20:21:37.585Z,18.03
2022-12-03T20:24:06.212Z,17.73
2022-12-03T20:26:33.616Z,16.37
2022-12-03T20:29:00.712Z,17.60
2022-12-03T20:31:31.159Z,16.43
2022-12-03T20:34:02.783Z,17.20
2022-12-03T20:36:32.075Z,16.60
2022-12-03T20:39:03.991Z,16.37
2022-12-03T20:41:31.037Z,17.23
2022-12-03T20:43:57.870Z,15.90
2022-12-03T20:46:29.182Z,17.73
2022-12-03T20:48:57.120Z,17.40
2022-12-03T20:51:27.976Z,15.70
2022-12-03T20:53:55.935Z,16.53
2022-12-03T20:56:32.689Z,16.30
2022-12-03T20:59:02.217Z,17.00
2022-12-03T21:01:29.428Z,16.10
2022-12-03T21:03:57.705Z,16.50
2022-12-03T21:06:30.597Z,17.77
2022-12-03T21:08:59.605Z,16.87
2022-12-03T21:11:31.521Z,17.37
2022-12-03T21:13:59.597Z,16.77
2022-12-03T21:16:59.417Z,17.60
2022-12-03T21:19:18.112Z,18.60
2022-12-03T21:21:45.289Z,18.90
2022-12-03T21:24:13.148Z,17.83
2022-12-03T21:26:40.580Z,18.57
2022-12-03T21:29:07.721Z,18.53
2022-12-03T21:31:37.163Z,17.87
2022-12-03T21:34:05.013Z,19.00
2022-12-03T21:36:32.392Z,18.23
2022-12-03T21:38:59.448Z,19.93
2022-12-03T21:41:26.480Z,19.57
2022-12-03T21:43:53.606Z,19.10
2022-12-03T21:47:09.359Z,19.70
2022-12-03T21:49:07.901Z,19.70
2022-12-03T21:51:34.745Z,20.47
2022-12-03T21:54:01.588Z,20.83
2022-12-03T21:56:30.804Z,19.53
2022-12-03T21:58:57.710Z,21.27
2022-12-03T22:01:25.631Z,21.80
2022-12-03T22:03:52.696Z,21.77
2022-12-03T22:06:20.201Z,23.10
2022-12-03T22:08:47.362Z,21.50
2022-12-03T22:11:22.575Z,21.87
2022-12-03T22:13:50.196Z,20.83
2022-12-03T22:16:20.104Z,20.20
2022-12-03T22:18:47.208Z,19.93
2022-12-03T22:21:17.728Z,17.63
2022-12-03T22:23:45.128Z,20.53
2022-12-03T22:26:15.925Z,18.97
2022-12-03T22:28:44.652Z,17.27
2022-12-03T22:31:12.620Z,17.33
2022-12-03T22:33:39.735Z,17.93
2022-12-03T22:36:16.430Z,16.73
2022-12-03T22:38:47.181Z,16.60
2022-12-03T22:41:14.696Z,17.23
2022-12-03T22:43:42.823Z,18.20
2022-12-03T22:46:12.296Z,17.57
2022-12-03T22:48:41.116Z,17.40
2022-12-03T22:51:16.845Z,16.93
2022-12-03T22:53:44.131Z,18.00
2022-12-03T22:56:11.103Z,18.20
2022-12-03T22:58:39.770Z,18.17
2022-12-03T23:01:07.638Z,18.83
2022-12-03T23:03:35.163Z,17.37
2022-12-03T23:06:09.151Z,18.70
2022-12-03T23:08:35.943Z,18.40
2022-12-03T23:11:02.809Z,17.40
2022-12-03T23:13:29.679Z,18.63
2022-12-03T23:15:56.544Z,19.53
2022-12-03T23:18:23.542Z,17.93
2022-12-03T23:20:53.892Z,18.13
2022-12-03T23:23:23.346Z,17.40
2022-12-03T23:26:01.083Z,18.60
2022-12-03T23:28:29.962Z,17.43
2022-12-03T23:30:57.497Z,17.70
2022-12-03T23:33:24.843Z,17.53
2022-12-03T23:35:51.814Z,16.60
2022-12-03T23:38:18.633Z,16.80
2022-12-03T23:40:48.327Z,17.00
2022-12-03T23:43:16.241Z,16.53
2022-12-03T23:45:43.040Z,17.20
2022-12-03T23:48:10.113Z,17.90
2022-12-03T23:50:41.204Z,17.93
2022-12-03T23:53:08.418Z,18.50
2022-12-03T23:55:38.972Z,17.37
2022-12-03T23:58:05.837Z,17.27
